Amity, Oregon
Current Conditions -  °F | °C
As of 1:53 PM on Friday 19 Dec 2014 (Local Time) from KMMV Reporting Station
Light Rain Light Rain  
Wind Chill: 11°   Ceiling: 5500
Heat Index: 11°   Visibility: 10mi
Dew Point:   Wind: 10mph
Humidity: 77%   Direction: 200°SSW
Pressure: 30.01"   Gusts: NA
Location:  45.12°N, 123.21°W
Report Text: KMMV 192153Z AUTO 20009KT 10SM -RA FEW044 BKN055 OVC080 11/07 A3001 RMK AO2 RAB39 SLP160 P0000 T01060067
Loading
Personal Weather Stations






























Interactive Weather Map New forecast layout! Learn more

10-Day Weather Forecast

Advertisements
Track Severe Weather on mobile